Time;durP1;ratioP1;P1;durP2;ratioP2;P2;SDS_P1;SDS_P2;PMS_P1;PMS_P2;Temp;Humidity;BMP_temperature;BMP_pressure;BME280_temperature;BME280_humidity;BME280_pressure;Samples;Min_cycle;Max_cycle;Signal;HPM_P1;HPM_P2
2024/01/11 00:00:27;;;;;;;1.80;1.70;;;;;;;-4.24;47.83;102576.97;672331;29;1307;-90
2024/01/11 00:00:48;;;;;;;1.40;1.30;;;;;;;-4.36;47.89;102558.59;671288;29;805;-89
2024/01/11 00:01:10;;;;;;;1.40;1.30;;;;;;;-4.32;47.56;102564.97;672024;29;1482;-89
2024/01/11 00:01:30;;;;;;;2.70;1.92;;;;;;;-4.39;47.99;102563.31;672452;29;1214;-90
2024/01/11 00:01:51;;;;;;;2.45;1.80;;;;;;;-4.40;47.70;102556.41;669789;29;1097;-89
2024/01/11 00:02:12;;;;;;;1.90;1.50;;;;;;;-4.36;47.73;102561.13;671795;29;1667;-89
2024/01/11 00:02:33;;;;;;;1.23;1.23;;;;;;;-4.43;47.62;102556.94;672435;29;1738;-89
2024/01/11 00:02:54;;;;;;;1.10;1.10;;;;;;;-4.41;47.71;102559.69;669704;29;1233;-89
2024/01/11 00:03:15;;;;;;;1.30;1.30;;;;;;;-4.40;47.55;102561.50;672923;29;1496;-90
2024/01/11 00:03:35;;;;;;;1.33;1.23;;;;;;;-4.50;47.82;102534.00;677538;29;1413;-90
2024/01/11 00:03:56;;;;;;;1.60;1.50;;;;;;;-4.38;47.92;102566.78;669889;29;1381;-90
2024/01/11 00:04:16;;;;;;;1.60;1.50;;;;;;;-4.42;47.78;102557.88;671677;29;1505;-90
2024/01/11 00:04:37;;;;;;;1.65;1.55;;;;;;;-4.38;47.76;102569.34;672517;29;1175;-90
2024/01/11 00:04:58;;;;;;;1.47;1.37;;;;;;;-4.46;47.82;102550.56;669875;29;1104;-90
2024/01/11 00:05:18;;;;;;;1.40;1.30;;;;;;;-4.52;47.84;102540.56;674626;29;1563;-90
2024/01/11 00:05:39;;;;;;;0.80;0.80;;;;;;;-4.45;48.05;102547.31;674417;29;1173;-90
2024/01/11 00:06:01;;;;;;;1.77;1.67;;;;;;;-4.43;48.01;102556.06;672099;29;1415;-89
2024/01/11 00:06:21;;;;;;;3.60;2.20;;;;;;;-4.50;47.97;102546.75;674355;29;1486;-90
2024/01/11 00:06:43;;;;;;;3.90;2.60;;;;;;;-4.45;47.92;102553.31;672412;29;827;-90
2024/01/11 00:07:04;;;;;;;3.20;1.88;;;;;;;-4.52;48.08;102543.13;677557;29;1268;-89
2024/01/11 00:07:24;;;;;;;2.60;1.60;;;;;;;-4.50;47.84;102549.28;672133;29;1510;-90
2024/01/11 00:07:45;;;;;;;2.28;1.38;;;;;;;-4.54;48.13;102542.03;669789;29;1203;-90
2024/01/11 00:08:06;;;;;;;1.77;1.65;;;;;;;-4.47;47.98;102556.41;672438;29;1073;-89
2024/01/11 00:08:26;;;;;;;2.10;2.00;;;;;;;-4.55;47.98;102535.13;674115;29;1406;-90
2024/01/11 00:08:47;;;;;;;2.30;2.20;;;;;;;-4.49;48.05;102550.22;675126;29;718;-90
2024/01/11 00:09:07;;;;;;;1.23;1.23;;;;;;;-4.50;47.85;102548.41;672193;29;1621;-90
2024/01/11 00:09:28;;;;;;;1.80;1.70;;;;;;;-4.51;47.81;102547.47;669838;29;1139;-90
2024/01/11 00:09:49;;;;;;;4.50;2.00;;;;;;;-4.49;48.03;102546.06;669851;29;1172;-90
2024/01/11 00:10:10;;;;;;;4.72;2.30;;;;;;;-4.44;48.03;102562.78;672335;29;1515;-89
2024/01/11 00:10:30;;;;;;;5.70;2.30;;;;;;;-4.46;47.91;102556.59;669829;29;1226;-90
2024/01/11 00:10:51;;;;;;;2.42;2.10;;;;;;;-4.57;48.23;102539.13;675071;29;794;-90
2024/01/11 00:11:11;;;;;;;4.00;2.10;;;;;;;-4.49;48.11;102552.78;672496;29;1477;-89
2024/01/11 00:11:32;;;;;;;5.57;2.40;;;;;;;-4.48;47.83;102552.03;672152;29;1120;-89
2024/01/11 00:11:53;;;;;;;6.07;3.15;;;;;;;-4.48;47.99;102552.03;672375;29;840;-90
2024/01/11 00:12:13;;;;;;;5.20;3.10;;;;;;;-4.50;48.18;102548.41;670302;29;1599;-90
2024/01/11 00:12:34;;;;;;;2.70;2.50;;;;;;;-4.47;48.02;102556.41;672257;29;1195;-90
2024/01/11 00:12:54;;;;;;;1.85;1.75;;;;;;;-4.55;48.00;102542.78;672378;29;1179;-90
2024/01/11 00:13:15;;;;;;;1.92;1.83;;;;;;;-4.56;48.09;102535.84;674459;29;1474;-89
2024/01/11 00:13:35;;;;;;;2.10;2.00;;;;;;;-4.48;48.07;102552.03;672286;29;1295;-90
2024/01/11 00:13:56;;;;;;;2.63;2.42;;;;;;;-4.54;48.10;102538.56;667253;29;1218;-91
2024/01/11 00:14:16;;;;;;;5.00;2.88;;;;;;;-4.58;48.11;102540.75;669628;29;1147;-89
2024/01/11 00:14:37;;;;;;;4.60;2.30;;;;;;;-4.61;48.00;102529.31;672254;29;1257;-89
2024/01/11 00:14:58;;;;;;;3.10;1.42;;;;;;;-4.52;48.19;102545.66;674835;29;1982;-90
2024/01/11 00:15:19;;;;;;;0.90;0.88;;;;;;;-4.54;48.12;102544.59;669375;29;1554;-90
2024/01/11 00:15:40;;;;;;;1.70;1.50;;;;;;;-4.59;48.09;102535.47;671910;29;777;-90
2024/01/11 00:16:00;;;;;;;1.63;1.30;;;;;;;-4.59;48.27;102527.84;672068;29;1205;-90
2024/01/11 00:16:21;;;;;;;1.15;1.02;;;;;;;-4.59;48.50;102543.13;669290;29;1578;-90
2024/01/11 00:16:41;;;;;;;0.80;0.80;;;;;;;-4.54;48.27;102547.13;672381;29;1129;-90
2024/01/11 00:17:02;;;;;;;1.58;1.48;;;;;;;-4.64;48.18;102527.28;669591;29;1210;-90
2024/01/11 00:17:23;;;;;;;1.73;1.63;;;;;;;-4.61;48.31;102534.41;671892;29;1459;-90
2024/01/11 00:17:43;;;;;;;2.90;2.17;;;;;;;-4.58;48.32;102539.84;667257;29;1160;-90
2024/01/11 00:18:04;;;;;;;4.53;2.37;;;;;;;-4.60;48.17;102537.13;674974;29;1291;-91
2024/01/11 00:18:24;;;;;;;4.70;2.50;;;;;;;-4.63;48.11;102533.31;671969;29;1674;-90
2024/01/11 00:18:45;;;;;;;2.92;2.13;;;;;;;-4.55;48.29;102545.31;674946;29;1329;-90
2024/01/11 00:19:06;;;;;;;1.55;1.48;;;;;;;-4.61;48.37;102540.41;674881;29;1214;-89
2024/01/11 00:19:27;;;;;;;1.70;1.50;;;;;;;-4.60;48.25;102544.78;674600;29;1633;-90
2024/01/11 00:19:50;;;;;;;2.20;1.88;;;;;;;-4.67;48.12;102532.03;665314;29;1125;-90
2024/01/11 00:20:11;;;;;;;2.40;1.90;;;;;;;-4.65;47.96;102543.31;669783;29;1563;-89
2024/01/11 00:20:31;;;;;;;3.37;2.50;;;;;;;-4.67;48.02;102538.75;672262;29;1160;-90
2024/01/11 00:20:52;;;;;;;4.30;2.70;;;;;;;-4.66;48.05;102540.56;672257;29;1689;-90
2024/01/11 00:21:12;;;;;;;5.28;3.28;;;;;;;-4.67;47.97;102543.84;671995;29;1575;-90
2024/01/11 00:21:33;;;;;;;3.00;2.70;;;;;;;-4.70;48.06;102544.41;672209;29;1082;-90
2024/01/11 00:21:54;;;;;;;2.00;1.87;;;;;;;-4.65;48.03;102550.97;674875;29;1347;-90
2024/01/11 00:22:14;;;;;;;3.47;1.88;;;;;;;-4.68;48.24;102550.59;671880;29;1471;-90
2024/01/11 00:22:35;;;;;;;3.20;1.48;;;;;;;-4.74;47.91;102539.69;669929;29;801;-90
2024/01/11 00:22:55;;;;;;;3.00;1.30;;;;;;;-4.72;47.90;102546.78;669695;29;1192;-90
2024/01/11 00:23:16;;;;;;;0.70;0.70;;;;;;;-4.77;48.15;102537.69;667733;29;1447;-90
2024/01/11 00:23:36;;;;;;;1.30;1.30;;;;;;;-4.64;48.00;102565.50;672371;29;1266;-90
2024/01/11 00:23:57;;;;;;;1.40;1.30;;;;;;;-4.72;47.94;102551.88;669778;29;1149;-90
2024/01/11 00:24:17;;;;;;;1.80;1.73;;;;;;;-4.69;48.08;102553.91;670434;29;1469;-89
2024/01/11 00:24:38;;;;;;;2.00;1.90;;;;;;;-4.68;47.94;102560.81;671588;29;782;-90
2024/01/11 00:24:59;;;;;;;2.60;2.50;;;;;;;-4.76;48.10;102539.50;675019;29;884;-90
2024/01/11 00:25:20;;;;;;;3.53;2.10;;;;;;;-4.71;48.12;102552.78;673311;29;1478;-90
2024/01/11 00:25:40;;;;;;;3.47;2.03;;;;;;;-4.74;48.11;102543.13;671689;29;1191;-90
2024/01/11 00:26:01;;;;;;;3.10;1.60;;;;;;;-4.74;48.13;102548.22;672261;29;789;-90
2024/01/11 00:26:22;;;;;;;1.25;1.25;;;;;;;-4.68;48.15;102559.88;669345;29;1580;-90
2024/01/11 00:26:43;;;;;;;1.00;1.00;;;;;;;-4.79;48.22;102538.22;669832;29;1290;-90
2024/01/11 00:27:04;;;;;;;0.90;0.90;;;;;;;-4.80;48.12;102539.88;672198;29;1355;-90
2024/01/11 00:27:24;;;;;;;1.67;1.58;;;;;;;-4.77;47.91;102547.88;671978;29;1552;-90
2024/01/11 00:27:45;;;;;;;2.00;1.80;;;;;;;-4.78;48.10;102542.59;669688;29;1180;-90
2024/01/11 00:28:05;;;;;;;2.00;1.80;;;;;;;-4.81;48.14;102543.16;669639;29;1226;-90
2024/01/11 00:28:26;;;;;;;2.80;1.50;;;;;;;-4.79;48.46;102544.25;667105;29;1578;-90
2024/01/11 00:28:47;;;;;;;2.60;1.40;;;;;;;-4.72;48.47;102548.41;672347;29;1246;-90
2024/01/11 00:29:07;;;;;;;2.60;1.40;;;;;;;-4.70;48.34;102555.50;674874;29;1243;-90
2024/01/11 00:29:28;;;;;;;1.00;1.00;;;;;;;-4.80;48.33;102538.94;674294;29;1461;-90
2024/01/11 00:29:49;;;;;;;1.52;1.42;;;;;;;-4.80;48.11;102542.41;672133;29;1483;-90
2024/01/11 00:30:09;;;;;;;2.08;1.98;;;;;;;-4.82;48.25;102538.75;669511;29;1557;-90
2024/01/11 00:30:30;;;;;;;2.50;2.15;;;;;;;-4.79;48.05;102544.25;672195;29;1030;-90
2024/01/11 00:30:51;;;;;;;2.00;1.52;;;;;;;-4.83;48.10;102542.03;672407;29;920;-89
2024/01/11 00:31:13;;;;;;;3.10;1.97;;;;;;;-4.82;48.23;102548.94;674506;29;1548;-89
2024/01/11 00:31:33;;;;;;;2.90;2.47;;;;;;;-4.79;48.16;102544.25;669654;29;1303;-89
2024/01/11 00:31:54;;;;;;;3.30;2.88;;;;;;;-4.87;48.12;102534.78;672196;29;1299;-89
2024/01/11 00:32:15;;;;;;;2.22;2.03;;;;;;;-4.88;47.94;102526.22;668574;29;1581;-90
2024/01/11 00:32:35;;;;;;;2.72;1.63;;;;;;;-4.85;48.13;102535.84;673417;29;789;-89
2024/01/11 00:32:56;;;;;;;4.70;1.80;;;;;;;-4.82;48.21;102536.22;672162;29;1182;-90
2024/01/11 00:33:16;;;;;;;4.70;1.67;;;;;;;-4.83;48.19;102531.84;668365;29;1644;-90
2024/01/11 00:33:37;;;;;;;5.70;1.58;;;;;;;-4.82;48.17;102532.78;672336;29;1200;-89
2024/01/11 00:33:58;;;;;;;3.50;1.20;;;;;;;-4.87;48.19;102529.69;672321;29;1171;-90
2024/01/11 00:34:18;;;;;;;3.50;1.40;;;;;;;-4.84;48.05;102535.13;674452;29;1580;-90
2024/01/11 00:34:39;;;;;;;1.40;1.30;;;;;;;-4.80;48.33;102537.31;672426;29;1218;-90
2024/01/11 00:35:00;;;;;;;2.10;2.00;;;;;;;-4.86;48.39;102531.50;669567;29;1915;-90
2024/01/11 00:35:20;;;;;;;2.42;2.30;;;;;;;-4.84;48.62;102530.97;669265;29;1463;-90
2024/01/11 00:35:41;;;;;;;2.33;2.22;;;;;;;-4.78;48.36;102543.50;674408;29;1196;-90
2024/01/11 00:36:02;;;;;;;2.20;2.10;;;;;;;-4.86;48.71;102534.03;672256;29;1261;-90
2024/01/11 00:36:22;;;;;;;2.42;2.22;;;;;;;-4.83;48.29;102544.59;674525;29;1473;-90
2024/01/11 00:36:43;;;;;;;2.20;2.00;;;;;;;-4.82;48.48;102536.22;669686;29;1349;-91
2024/01/11 00:37:04;;;;;;;2.20;1.92;;;;;;;-4.81;48.14;102542.22;672393;29;1259;-90
2024/01/11 00:37:25;;;;;;;1.63;1.52;;;;;;;-4.82;48.24;102541.31;672023;29;1402;-90
2024/01/11 00:37:45;;;;;;;2.00;1.90;;;;;;;-4.83;48.13;102542.03;672439;29;835;-90
2024/01/11 00:38:06;;;;;;;1.47;1.47;;;;;;;-4.87;48.40;102537.31;674831;29;1161;-90
2024/01/11 00:38:26;;;;;;;1.48;1.48;;;;;;;-4.82;48.60;102543.84;671808;29;1536;-89
2024/01/11 00:38:47;;;;;;;1.20;1.20;;;;;;;-4.82;48.33;102542.97;669695;29;1276;-90
2024/01/11 00:39:08;;;;;;;1.05;1.05;;;;;;;-4.85;48.36;102540.97;675315;29;1378;-90
2024/01/11 00:39:29;;;;;;;1.20;1.10;;;;;;;-4.85;48.22;102540.97;669586;29;1397;-90
2024/01/11 00:39:50;;;;;;;1.20;1.10;;;;;;;-4.88;48.25;102527.88;671805;29;1174;-90
2024/01/11 00:40:11;;;;;;;1.40;1.30;;;;;;;-4.87;48.34;102528.03;677134;29;1464;-90
2024/01/11 00:40:31;;;;;;;0.85;0.85;;;;;;;-4.88;48.36;102522.78;676472;29;1301;-90
2024/01/11 00:40:52;;;;;;;0.90;0.90;;;;;;;-4.82;48.29;102541.31;669746;29;1187;-90
2024/01/11 00:41:13;;;;;;;1.70;1.60;;;;;;;-4.89;48.41;102528.59;672000;29;1473;-90
2024/01/11 00:41:34;;;;;;;3.10;2.80;;;;;;;-4.86;48.20;102537.47;672165;29;1255;-90
2024/01/11 00:41:54;;;;;;;3.03;2.72;;;;;;;-4.88;48.53;102533.84;669795;29;1315;-90
2024/01/11 00:42:15;;;;;;;2.08;1.55;;;;;;;-4.89;48.41;102532.03;669245;29;1605;-90
2024/01/11 00:42:36;;;;;;;0.85;0.85;;;;;;;-4.93;48.71;102531.50;672340;29;836;-90
2024/01/11 00:42:56;;;;;;;1.00;1.00;;;;;;;-4.89;48.59;102536.25;672291;29;1251;-90
2024/01/11 00:43:17;;;;;;;1.27;1.20;;;;;;;-4.93;48.39;102521.31;664493;29;1590;-90
2024/01/11 00:43:37;;;;;;;1.98;1.88;;;;;;;-4.88;49.05;102532.97;671977;29;1204;-91
2024/01/11 00:43:58;;;;;;;2.00;1.90;;;;;;;-4.89;48.35;102529.50;669782;29;1129;-90
2024/01/11 00:44:19;;;;;;;2.10;2.00;;;;;;;-4.85;48.60;102536.78;671882;29;1501;-89
2024/01/11 00:44:40;;;;;;;1.25;1.15;;;;;;;-4.88;48.44;102536.41;669776;29;1322;-90
2024/01/11 00:45:01;;;;;;;1.55;1.45;;;;;;;-4.89;48.48;102536.25;664769;29;1375;-91
2024/01/11 00:45:22;;;;;;;1.80;1.70;;;;;;;-4.86;48.31;102534.03;670909;29;1505;-90
2024/01/11 00:45:45;;;;;;;2.00;1.90;;;;;;;-4.91;48.30;102528.41;669518;29;1298;-89
2024/01/11 00:46:06;;;;;;;1.77;1.67;;;;;;;-4.92;48.38;102526.59;669629;29;1662;-90
2024/01/11 00:46:28;;;;;;;1.52;1.42;;;;;;;-4.90;48.43;102529.28;671654;29;1585;-90
2024/01/11 00:46:48;;;;;;;2.03;1.92;;;;;;;-4.92;48.44;102526.59;672349;29;1358;-90
2024/01/11 00:47:10;;;;;;;2.00;1.90;;;;;;;-4.94;48.30;102524.59;669538;29;1167;-90
2024/01/11 00:47:31;;;;;;;1.85;1.75;;;;;;;-4.89;48.50;102529.50;672195;29;1380;-90
2024/01/11 00:47:52;;;;;;;2.40;1.80;;;;;;;-4.89;48.41;102534.59;674898;29;1211;-90
2024/01/11 00:48:12;;;;;;;2.42;1.88;;;;;;;-4.92;48.46;102525.66;671901;29;1479;-90
2024/01/11 00:48:33;;;;;;;2.20;1.73;;;;;;;-4.95;48.56;102520.22;674868;29;1089;-90
2024/01/11 00:48:53;;;;;;;1.67;1.60;;;;;;;-4.93;48.56;102534.03;674706;29;1542;-90
2024/01/11 00:49:14;;;;;;;3.97;1.60;;;;;;;-4.93;48.63;102526.41;669217;29;1519;-90
2024/01/11 00:49:35;;;;;;;5.00;2.10;;;;;;;-4.92;48.65;102533.31;672120;29;1211;-90
2024/01/11 00:49:56;;;;;;;5.90;2.40;;;;;;;-4.94;48.36;102528.03;669789;29;1148;-90
2024/01/11 00:50:16;;;;;;;2.15;2.00;;;;;;;-4.92;48.23;102535.84;671867;29;1497;-90
2024/01/11 00:50:37;;;;;;;3.42;2.13;;;;;;;-4.89;48.59;102539.69;677411;29;1441;-89
2024/01/11 00:50:58;;;;;;;2.70;1.60;;;;;;;-4.88;48.55;102543.16;677586;29;832;-88
2024/01/11 00:51:18;;;;;;;3.40;1.70;;;;;;;-4.85;48.12;102538.41;674342;29;1559;-90
2024/01/11 00:51:39;;;;;;;1.35;1.17;;;;;;;-4.88;48.53;102545.69;674727;29;1305;-90
2024/01/11 00:52:00;;;;;;;1.27;1.17;;;;;;;-5.02;48.65;102537.31;672883;29;1207;-90
2024/01/11 00:52:21;;;;;;;1.70;1.60;;;;;;;-4.95;48.81;102538.06;674002;29;1577;-90
2024/01/11 00:52:41;;;;;;;2.28;2.17;;;;;;;-5.02;48.76;102527.13;674919;29;832;-90
2024/01/11 00:53:02;;;;;;;2.53;2.40;;;;;;;-5.03;48.50;102527.84;673691;29;1662;-90
2024/01/11 00:53:23;;;;;;;2.80;2.60;;;;;;;-4.95;48.98;102530.41;675266;29;1450;-90
2024/01/11 00:53:44;;;;;;;2.00;1.90;;;;;;;-5.01;48.55;102523.84;672309;29;733;-89
2024/01/11 00:54:05;;;;;;;1.63;1.53;;;;;;;-4.93;48.90;102534.03;669703;29;1363;-90
2024/01/11 00:54:25;;;;;;;1.30;1.20;;;;;;;-4.98;48.78;102531.84;669293;29;1609;-90
2024/01/11 00:54:46;;;;;;;1.93;1.83;;;;;;;-4.98;48.96;102534.38;667169;29;1478;-90
2024/01/11 00:55:07;;;;;;;2.10;2.00;;;;;;;-4.99;48.75;102532.56;669667;29;1192;-90
2024/01/11 00:55:27;;;;;;;2.13;1.92;;;;;;;-4.92;48.83;102543.50;668862;29;1470;-90
2024/01/11 00:55:48;;;;;;;2.13;1.92;;;;;;;-4.94;48.73;102537.31;669727;29;1298;-90
2024/01/11 00:56:19;;;;;;;2.40;2.00;;;;;;;-5.07;48.97;102524.75;672047;29;1114;-90
2024/01/11 00:56:39;;;;;;;2.70;2.17;;;;;;;-4.97;48.41;102537.84;669810;29;820;-90
2024/01/11 00:57:00;;;;;;;3.38;2.33;;;;;;;-5.00;48.68;102523.13;673873;29;1209;-89
2024/01/11 00:57:21;;;;;;;3.30;2.30;;;;;;;-4.97;48.85;102536.22;672814;29;1687;-90
2024/01/11 00:57:41;;;;;;;1.60;1.42;;;;;;;-4.93;48.92;102539.13;674953;29;789;-89
2024/01/11 00:58:02;;;;;;;1.30;1.03;;;;;;;-4.92;48.74;102535.84;672242;29;1256;-90
2024/01/11 00:58:23;;;;;;;1.40;1.23;;;;;;;-5.00;48.65;102527.31;671990;29;1517;-90
2024/01/11 00:58:44;;;;;;;1.43;1.33;;;;;;;-4.98;48.66;102542.03;669709;29;917;-90
2024/01/11 00:59:05;;;;;;;1.73;1.63;;;;;;;-5.03;48.38;102526.94;664624;29;1185;-90
2024/01/11 00:59:25;;;;;;;2.28;2.17;;;;;;;-4.99;48.79;102539.31;671455;29;1442;-89
2024/01/11 00:59:46;;;;;;;2.13;2.03;;;;;;;-5.01;48.60;102541.66;672679;29;1612;-90
2024/01/11 01:00:07;;;;;;;1.85;1.77;;;;;;;-5.07;48.95;102530.75;672206;29;1306;-90
2024/01/11 01:00:28;;;;;;;1.10;1.10;;;;;;;-5.01;48.70;102536.56;669351;29;1602;-89
2024/01/11 01:00:49;;;;;;;1.05;1.05;;;;;;;-5.02;48.62;102539.84;672215;29;1412;-89
2024/01/11 01:01:10;;;;;;;1.30;1.20;;;;;;;-5.08;48.63;102534.03;672227;29;1274;-89
2024/01/11 01:01:31;;;;;;;2.70;2.38;;;;;;;-4.99;48.82;102549.50;669546;29;1338;-89
2024/01/11 01:01:52;;;;;;;2.40;2.10;;;;;;;-5.09;48.89;102542.38;672329;29;1204;-89
2024/01/11 01:02:13;;;;;;;3.40;2.70;;;;;;;-5.14;48.90;102539.28;669303;29;1479;-90
2024/01/11 01:02:33;;;;;;;1.80;1.70;;;;;;;-5.00;48.70;102553.69;667132;29;1261;-90
2024/01/11 01:02:54;;;;;;;4.45;2.20;;;;;;;-5.05;48.66;102539.50;669680;29;1176;-89
2024/01/11 01:03:15;;;;;;;3.67;1.98;;;;;;;-5.07;48.51;102540.94;669447;29;1475;-89
2024/01/11 01:03:36;;;;;;;3.47;2.00;;;;;;;-5.05;49.04;102544.59;669594;29;1406;-89
2024/01/11 01:03:58;;;;;;;1.83;1.73;;;;;;;-4.99;48.69;102550.41;672310;29;1151;-89
2024/01/11 01:04:18;;;;;;;1.85;1.65;;;;;;;-5.08;48.80;102533.13;669333;29;1614;-89
2024/01/11 01:04:39;;;;;;;3.85;1.98;;;;;;;-4.99;48.88;102550.41;667129;29;1268;-90
2024/01/11 01:05:00;;;;;;;3.33;1.17;;;;;;;-5.07;48.88;102535.84;669723;29;1189;-90
2024/01/11 01:05:20;;;;;;;1.88;1.02;;;;;;;-5.00;48.85;102561.31;673117;29;1564;-90
2024/01/11 01:05:41;;;;;;;1.02;1.02;;;;;;;-5.05;48.63;102546.22;669276;29;1224;-89
2024/01/11 01:06:03;;;;;;;1.23;1.23;;;;;;;-5.06;48.82;102540.19;667219;29;1016;-89
2024/01/11 01:06:23;;;;;;;0.98;0.98;;;;;;;-5.07;48.62;102540.94;671098;29;1344;-90
2024/01/11 01:06:44;;;;;;;0.82;0.82;;;;;;;-5.08;48.88;102536.56;671287;29;1298;-90
2024/01/11 01:07:05;;;;;;;2.33;1.13;;;;;;;-4.99;48.64;102562.25;669775;29;1166;-90
2024/01/11 01:07:26;;;;;;;2.80;1.60;;;;;;;-5.02;48.55;102542.41;672352;29;1535;-89
2024/01/11 01:07:46;;;;;;;2.80;1.80;;;;;;;-5.08;48.70;102541.66;672350;29;1257;-90
2024/01/11 01:08:07;;;;;;;1.27;1.27;;;;;;;-5.06;48.63;102537.66;669640;29;1313;-90
2024/01/11 01:08:28;;;;;;;1.20;1.20;;;;;;;-5.05;48.42;102542.03;671974;29;1528;-89
2024/01/11 01:08:49;;;;;;;1.17;1.17;;;;;;;-5.02;48.71;102550.03;672037;29;1291;-90
2024/01/11 01:09:10;;;;;;;1.17;1.17;;;;;;;-5.04;48.58;102538.78;674783;29;1199;-89
2024/01/11 01:09:31;;;;;;;1.73;1.67;;;;;;;-5.10;48.59;102535.47;674424;29;1501;-89
2024/01/11 01:09:51;;;;;;;2.97;1.98;;;;;;;-5.10;48.75;102535.47;671202;29;1506;-90
2024/01/11 01:10:12;;;;;;;6.30;2.80;;;;;;;-5.09;48.61;102536.38;671902;29;1494;-89
2024/01/11 01:10:32;;;;;;;6.50;2.50;;;;;;;-5.10;48.68;102540.56;672191;29;1254;-89
2024/01/11 01:10:53;;;;;;;3.90;1.95;;;;;;;-5.06;48.57;102547.84;672149;29;1491;-89
2024/01/11 01:11:14;;;;;;;1.80;1.70;;;;;;;-5.08;48.41;102539.13;674523;29;1469;-89
2024/01/11 01:11:34;;;;;;;1.70;1.70;;;;;;;-5.07;48.53;102535.84;677278;29;1318;-90
2024/01/11 01:11:55;;;;;;;2.70;2.60;;;;;;;-5.06;48.68;102542.75;672275;29;1170;-89
2024/01/11 01:12:15;;;;;;;2.15;2.05;;;;;;;-5.06;48.54;102542.75;670109;29;1474;-90
2024/01/11 01:12:36;;;;;;;2.10;1.90;;;;;;;-5.05;48.92;102539.50;669653;29;1164;-89
2024/01/11 01:12:56;;;;;;;5.20;2.20;;;;;;;-5.06;48.67;102536.75;674574;29;1287;-89
2024/01/11 01:13:17;;;;;;;5.83;3.13;;;;;;;-5.11;48.59;102528.56;674303;29;1519;-89
2024/01/11 01:13:37;;;;;;;5.00;3.10;;;;;;;-5.06;48.64;102536.75;674694;29;1108;-90
2024/01/11 01:13:58;;;;;;;2.63;2.42;;;;;;;-5.09;48.54;102528.75;674843;29;1445;-90
2024/01/11 01:14:19;;;;;;;3.00;2.20;;;;;;;-5.05;48.48;102539.50;671865;29;1507;-90
2024/01/11 01:14:40;;;;;;;2.47;1.70;;;;;;;-5.08;48.78;102534.03;672271;29;1275;-89
2024/01/11 01:15:03;;;;;;;3.40;2.60;;;;;;;-5.11;48.62;102534.56;674787;29;2316;-90
2024/01/11 01:15:24;;;;;;;2.40;2.20;;;;;;;-5.14;48.73;102524.03;674178;29;1550;-90
2024/01/11 01:15:45;;;;;;;2.70;1.95;;;;;;;-5.07;48.75;102540.94;672251;29;1132;-90
2024/01/11 01:16:06;;;;;;;1.92;1.45;;;;;;;-5.07;48.73;102540.03;671988;29;1120;-90
2024/01/11 01:16:26;;;;;;;1.70;1.50;;;;;;;-5.17;48.57;102520.19;669534;29;1439;-90
2024/01/11 01:16:47;;;;;;;1.40;1.40;;;;;;;-5.11;48.85;102534.56;672284;29;1318;-90
2024/01/11 01:17:08;;;;;;;1.25;1.25;;;;;;;-5.09;48.74;102537.31;669488;29;1135;-89
2024/01/11 01:17:28;;;;;;;1.00;1.00;;;;;;;-5.05;48.87;102547.16;672131;29;1660;-90
2024/01/11 01:17:49;;;;;;;1.00;1.00;;;;;;;-5.14;48.42;102530.72;674596;29;965;-90
2024/01/11 01:18:09;;;;;;;0.93;0.93;;;;;;;-5.11;48.81;102534.56;674730;29;1191;-90
2024/01/11 01:18:30;;;;;;;1.00;1.00;;;;;;;-5.17;48.89;102528.75;672508;29;1473;-89
2024/01/11 01:18:51;;;;;;;1.33;1.23;;;;;;;-5.11;48.90;102538.75;674729;29;1280;-89
2024/01/11 01:19:11;;;;;;;1.70;1.60;;;;;;;-5.20;48.88;102530.91;674646;29;1152;-89
2024/01/11 01:19:35;;;;;;;1.90;1.80;;;;;;;-5.07;48.88;102555.31;672123;29;1353;-90
2024/01/11 01:19:55;;;;;;;1.52;1.52;;;;;;;-5.15;49.01;102542.56;672233;29;1280;-89
2024/01/11 01:20:16;;;;;;;1.40;1.40;;;;;;;-5.15;48.63;102541.66;670132;29;1459;-89
2024/01/11 01:20:36;;;;;;;1.40;1.40;;;;;;;-5.19;48.99;102540.38;670656;29;1484;-90
2024/01/11 01:20:57;;;;;;;1.20;1.20;;;;;;;-5.06;48.86;102562.22;669446;29;1241;-90
2024/01/11 01:21:18;;;;;;;0.98;0.98;;;;;;;-5.18;48.91;102541.28;671975;29;1837;-90
2024/01/11 01:21:38;;;;;;;1.10;1.10;;;;;;;-5.15;49.01;102545.13;672135;29;1160;-90
2024/01/11 01:21:59;;;;;;;2.90;1.80;;;;;;;-5.09;48.79;102556.75;674841;29;1285;-89
2024/01/11 01:22:19;;;;;;;3.10;2.17;;;;;;;-5.16;48.60;102550.00;674496;29;1541;-90
2024/01/11 01:22:40;;;;;;;4.15;2.33;;;;;;;-5.21;48.68;102535.81;674653;29;1283;-89
2024/01/11 01:23:01;;;;;;;2.10;1.80;;;;;;;-5.16;48.32;102550.00;674782;29;1102;-90
2024/01/11 01:23:22;;;;;;;1.90;1.40;;;;;;;-5.15;48.74;102551.84;671995;29;1670;-90
2024/01/11 01:23:42;;;;;;;0.85;0.85;;;;;;;-5.21;48.92;102546.00;668902;29;1685;-90
2024/01/11 01:24:03;;;;;;;1.60;1.50;;;;;;;-5.27;48.57;102531.81;667181;29;1282;-90
2024/01/11 01:24:24;;;;;;;1.60;1.50;;;;;;;-5.22;48.84;102544.19;669397;29;1547;-89
2024/01/11 01:24:44;;;;;;;1.70;1.38;;;;;;;-5.23;48.95;102542.38;669512;29;1639;-89
2024/01/11 01:25:06;;;;;;;1.08;1.08;;;;;;;-5.20;48.59;102545.28;672058;29;1321;-90
2024/01/11 01:25:26;;;;;;;1.60;1.50;;;;;;;-5.33;48.89;102535.25;674720;29;1473;-90
2024/01/11 01:25:47;;;;;;;1.73;1.63;;;;;;;-5.36;49.13;102546.00;669646;29;1156;-89
2024/01/11 01:26:07;;;;;;;1.90;1.80;;;;;;;-5.38;49.14;102552.50;669591;29;1322;-90
2024/01/11 01:26:28;;;;;;;3.00;2.00;;;;;;;-5.48;49.53;102539.41;672241;29;1256;-90
2024/01/11 01:26:48;;;;;;;2.63;2.10;;;;;;;-5.33;49.11;102553.97;672250;29;1222;-90
2024/01/11 01:27:09;;;;;;;2.70;2.00;;;;;;;-5.32;49.12;102544.72;672119;29;1614;-90
2024/01/11 01:27:30;;;;;;;2.40;1.57;;;;;;;-5.36;49.24;102538.34;669266;29;1215;-90
2024/01/11 01:27:50;;;;;;;2.63;1.80;;;;;;;-5.31;49.23;102544.00;669544;29;1501;-89
2024/01/11 01:28:11;;;;;;;3.60;2.00;;;;;;;-5.41;49.10;102535.25;667121;29;1205;-89
2024/01/11 01:28:33;;;;;;;3.10;2.40;;;;;;;-5.28;49.14;102559.63;672149;29;1168;-89
2024/01/11 01:28:54;;;;;;;3.00;2.10;;;;;;;-5.35;49.36;102542.72;669646;29;1360;-89
2024/01/11 01:29:15;;;;;;;1.90;1.70;;;;;;;-5.36;49.08;102538.34;669492;29;1003;-89
2024/01/11 01:29:35;;;;;;;1.20;1.10;;;;;;;-5.30;49.19;102546.72;671054;29;1190;-89
2024/01/11 01:29:56;;;;;;;1.20;1.10;;;;;;;-5.35;49.14;102541.78;667184;29;1212;-89
2024/01/11 01:30:16;;;;;;;1.48;1.38;;;;;;;-5.36;48.92;102540.91;669384;29;1432;-89
2024/01/11 01:30:37;;;;;;;1.30;1.20;;;;;;;-5.32;49.37;102548.16;672050;29;1309;-89
2024/01/11 01:30:58;;;;;;;1.70;1.40;;;;;;;-5.27;49.18;102552.19;672272;29;1265;-90
2024/01/11 01:31:18;;;;;;;2.17;1.90;;;;;;;-5.29;49.20;102547.63;673461;29;1505;-88
2024/01/11 01:31:39;;;;;;;2.58;2.38;;;;;;;-5.31;49.01;102544.88;669663;29;848;-89
2024/01/11 01:32:00;;;;;;;2.38;2.28;;;;;;;-5.32;49.23;102543.06;672208;29;1188;-90
2024/01/11 01:32:20;;;;;;;2.50;1.90;;;;;;;-5.33;49.08;102541.25;670270;29;1779;-90
2024/01/11 01:32:41;;;;;;;2.57;1.70;;;;;;;-5.33;48.97;102541.25;669619;29;1164;-89
2024/01/11 01:33:02;;;;;;;2.50;1.40;;;;;;;-5.25;49.00;102555.81;669418;29;1216;-88
2024/01/11 01:33:22;;;;;;;1.10;1.10;;;;;;;-5.27;49.02;102548.72;669186;29;1266;-89
2024/01/11 01:33:43;;;;;;;0.98;0.98;;;;;;;-5.31;49.12;102549.97;672054;29;793;-89
2024/01/11 01:34:04;;;;;;;1.15;1.15;;;;;;;-5.29;49.05;102553.66;667113;29;1125;-90
2024/01/11 01:34:25;;;;;;;1.30;1.30;;;;;;;-5.33;49.19;102548.91;672319;29;1463;-89
2024/01/11 01:34:46;;;;;;;1.70;1.60;;;;;;;-5.33;49.04;102547.97;672125;29;1222;-89
2024/01/11 01:35:07;;;;;;;1.80;1.70;;;;;;;-5.34;49.20;102549.63;669505;29;1990;-89
2024/01/11 01:35:28;;;;;;;1.38;1.27;;;;;;;-5.36;49.06;102546.00;671758;29;1600;-89
2024/01/11 01:35:48;;;;;;;1.42;1.33;;;;;;;-5.35;49.22;102547.81;667130;29;1460;-89
2024/01/11 01:36:10;;;;;;;7.60;2.00;;;;;;;-5.33;49.05;102553.97;669456;29;1365;-88
2024/01/11 01:36:31;;;;;;;7.80;1.95;;;;;;;-5.27;49.06;102558.91;671840;29;1661;-90
2024/01/11 01:36:51;;;;;;;7.70;1.95;;;;;;;-5.33;49.12;102553.06;677412;29;1170;-90
2024/01/11 01:37:12;;;;;;;1.40;1.30;;;;;;;-5.27;48.98;102567.47;671982;29;1276;-89
2024/01/11 01:37:33;;;;;;;1.60;1.60;;;;;;;-5.40;49.43;102539.63;673305;29;1231;-89
2024/01/11 01:37:53;;;;;;;1.90;1.80;;;;;;;-5.35;49.10;102550.34;674904;29;1248;-90
2024/01/11 01:38:14;;;;;;;15.10;2.55;;;;;;;-5.36;48.98;102546.00;671904;29;1511;-89
2024/01/11 01:38:35;;;;;;;14.75;2.30;;;;;;;-5.34;49.22;102549.63;674728;29;1229;-89
2024/01/11 01:38:55;;;;;;;8.13;1.80;;;;;;;-5.33;49.14;102550.50;669672;29;1214;-89
2024/01/11 01:39:16;;;;;;;1.55;1.55;;;;;;;-5.35;49.25;102554.53;669968;29;1835;-90